createdAt,value
2023-11-21T00:01:41.828Z,3.83
2023-11-21T00:04:09.896Z,2.35
2023-11-21T00:06:37.948Z,1.52
2023-11-21T00:09:06.265Z,2.92
2023-11-21T00:11:34.142Z,2.62
2023-11-21T00:14:01.858Z,2.10
2023-11-21T00:16:29.329Z,1.92
2023-11-21T00:18:57.528Z,2.28
2023-11-21T00:21:25.130Z,1.27
2023-11-21T00:23:52.681Z,0.68
2023-11-21T00:26:20.523Z,1.00
2023-11-21T00:28:49.162Z,1.65
2023-11-21T00:31:16.845Z,0.75
2023-11-21T00:33:45.119Z,3.53
2023-11-21T00:36:14.106Z,1.55
2023-11-21T00:38:41.690Z,1.05
2023-11-21T00:41:09.391Z,2.33
2023-11-21T00:43:37.117Z,2.83
2023-11-21T00:46:10.714Z,3.20
2023-11-21T00:48:38.899Z,1.48
2023-11-21T00:51:07.450Z,2.45
2023-11-21T00:53:35.354Z,1.98
2023-11-21T00:56:03.765Z,0.77
2023-11-21T00:58:31.525Z,3.08
2023-11-21T01:00:59.268Z,2.42
2023-11-21T01:03:27.460Z,2.90
2023-11-21T01:05:55.439Z,1.62
2023-11-21T01:08:24.408Z,2.67
2023-11-21T01:10:52.488Z,1.02
2023-11-21T01:13:20.035Z,0.98
2023-11-21T01:15:47.640Z,1.58
2023-11-21T01:18:15.495Z,2.22
2023-11-21T01:20:42.976Z,3.22
2023-11-21T01:23:10.668Z,1.83
2023-11-21T01:25:38.607Z,1.00
2023-11-21T01:28:06.283Z,2.60
2023-11-21T01:30:34.177Z,1.65
2023-11-21T01:33:02.146Z,0.80
2023-11-21T01:35:31.639Z,0.82
2023-11-21T01:37:59.846Z,1.20
2023-11-21T01:40:27.849Z,1.20
2023-11-21T01:42:55.529Z,1.52
2023-11-21T01:45:23.558Z,0.88
2023-11-21T01:47:52.053Z,1.67
2023-11-21T01:50:20.364Z,1.30
2023-11-21T01:52:48.782Z,1.70
2023-11-21T01:55:27.485Z,4.07
2023-11-21T01:57:58.211Z,2.03
2023-11-21T02:00:29.603Z,3.22
2023-11-21T02:02:58.408Z,1.70
2023-11-21T02:05:27.154Z,1.77
2023-11-21T02:07:54.986Z,2.37
2023-11-21T02:10:24.716Z,3.17
2023-11-21T02:12:53.431Z,2.08
2023-11-21T02:15:22.245Z,1.65
2023-11-21T02:17:55.371Z,1.50
2023-11-21T02:20:26.186Z,1.10
2023-11-21T02:23:01.711Z,1.33
2023-11-21T02:25:35.365Z,1.45
2023-11-21T02:28:04.458Z,1.65
2023-11-21T02:30:35.792Z,2.08
2023-11-21T02:33:03.905Z,1.87
2023-11-21T02:35:33.248Z,0.82
2023-11-21T02:38:01.176Z,1.17
2023-11-21T02:40:28.910Z,1.65
2023-11-21T02:43:00.433Z,1.33
2023-11-21T02:45:28.397Z,2.50
2023-11-21T02:47:58.494Z,0.88
2023-11-21T02:50:28.120Z,2.77
2023-11-21T02:52:55.876Z,6.43
2023-11-21T02:55:26.193Z,0.93
2023-11-21T02:57:57.663Z,1.33
2023-11-21T03:00:28.057Z,2.92
2023-11-21T03:02:57.351Z,0.80
2023-11-21T03:05:24.994Z,1.55
2023-11-21T03:07:52.561Z,1.58
2023-11-21T03:10:22.620Z,1.15
2023-11-21T03:12:50.682Z,3.80
2023-11-21T03:15:18.498Z,1.35
2023-11-21T03:17:46.440Z,1.45
2023-11-21T03:20:15.096Z,0.90
2023-11-21T03:22:42.768Z,0.73
2023-11-21T03:25:13.465Z,0.73
2023-11-21T03:27:41.011Z,1.80
2023-11-21T03:30:10.012Z,1.37
2023-11-21T03:32:37.932Z,1.52
2023-11-21T03:35:07.307Z,1.12
2023-11-21T03:37:35.320Z,0.57
2023-11-21T03:40:05.504Z,1.00
2023-11-21T03:42:33.139Z,0.65
2023-11-21T03:45:00.590Z,2.20
2023-11-21T03:47:29.457Z,1.23
2023-11-21T03:49:57.495Z,0.25
2023-11-21T03:52:25.839Z,0.77
2023-11-21T03:54:53.857Z,0.88
2023-11-21T03:57:22.148Z,1.98
2023-11-21T03:59:49.691Z,1.67
2023-11-21T04:02:18.598Z,0.30
2023-11-21T04:04:46.860Z,0.50
2023-11-21T04:07:14.938Z,0.30
2023-11-21T04:09:42.588Z,0.80
2023-11-21T04:12:10.846Z,0.37
2023-11-21T04:14:38.442Z,0.88
2023-11-21T04:17:06.312Z,0.00
2023-11-21T04:19:34.177Z,0.43
2023-11-21T04:22:01.729Z,0.85
2023-11-21T04:24:29.452Z,0.43
2023-11-21T04:26:57.408Z,0.80
2023-11-21T04:29:24.869Z,0.37
2023-11-21T04:31:52.340Z,0.68
2023-11-21T04:34:20.099Z,0.32
2023-11-21T04:36:47.542Z,1.05
2023-11-21T04:39:15.266Z,0.35
2023-11-21T04:41:43.945Z,0.85
2023-11-21T04:44:11.615Z,0.05
2023-11-21T04:46:39.250Z,0.98
2023-11-21T04:49:07.013Z,0.30
2023-11-21T04:51:34.952Z,0.95
2023-11-21T04:54:02.396Z,0.40
2023-11-21T04:56:30.125Z,0.00
2023-11-21T04:58:57.911Z,0.75
2023-11-21T05:01:25.412Z,0.00
2023-11-21T05:03:53.890Z,0.37
2023-11-21T05:06:21.566Z,0.13
2023-11-21T05:08:49.100Z,1.00
2023-11-21T05:11:33.254Z,0.00
2023-11-21T05:14:02.905Z,0.70
2023-11-21T05:16:30.972Z,0.15
2023-11-21T05:19:02.220Z,0.47
2023-11-21T05:21:31.523Z,1.65
2023-11-21T05:23:59.464Z,0.62
2023-11-21T05:26:27.978Z,0.77
2023-11-21T05:28:55.650Z,1.17
2023-11-21T05:31:23.793Z,1.08
2023-11-21T05:33:51.292Z,0.43
2023-11-21T05:36:19.312Z,0.40
2023-11-21T05:38:47.181Z,1.00
2023-11-21T05:41:14.994Z,1.37
2023-11-21T05:43:42.497Z,0.13
2023-11-21T05:46:10.556Z,1.00
2023-11-21T05:48:40.989Z,0.65
2023-11-21T05:51:09.618Z,0.62
2023-11-21T05:53:37.555Z,1.55
2023-11-21T05:56:05.283Z,1.75
2023-11-21T05:58:33.388Z,0.93
2023-11-21T06:01:01.317Z,0.62
2023-11-21T06:03:29.366Z,0.90
2023-11-21T06:05:57.070Z,0.20
2023-11-21T06:08:25.867Z,0.52
2023-11-21T06:10:53.789Z,1.02
2023-11-21T06:13:25.563Z,0.77
2023-11-21T06:15:53.975Z,1.08
2023-11-21T06:18:21.586Z,1.33
2023-11-21T06:20:49.592Z,0.73
2023-11-21T06:23:17.665Z,0.22
2023-11-21T06:25:45.727Z,0.70
2023-11-21T06:28:13.386Z,1.40
2023-11-21T06:30:41.289Z,1.25
2023-11-21T06:33:09.288Z,0.88
2023-11-21T06:35:37.100Z,1.17
2023-11-21T06:38:04.948Z,1.08
2023-11-21T06:40:35.004Z,0.80
2023-11-21T06:43:02.637Z,0.88
2023-11-21T06:45:30.377Z,0.75
2023-11-21T06:47:57.967Z,3.00
2023-11-21T06:50:25.689Z,1.15
2023-11-21T06:52:53.598Z,1.08
2023-11-21T06:55:21.767Z,0.35
2023-11-21T06:57:49.682Z,1.08
2023-11-21T07:00:19.374Z,0.37
2023-11-21T07:02:47.429Z,0.88
2023-11-21T07:05:16.624Z,0.82
2023-11-21T07:07:45.155Z,0.28
2023-11-21T07:10:12.787Z,1.60
2023-11-21T07:12:41.253Z,0.00
2023-11-21T07:15:12.580Z,0.45
2023-11-21T07:17:41.939Z,1.45
2023-11-21T07:20:12.213Z,0.30
2023-11-21T07:22:42.045Z,1.10
2023-11-21T07:25:11.308Z,0.05
2023-11-21T07:27:38.992Z,1.35
2023-11-21T07:30:09.339Z,1.52
2023-11-21T07:32:37.286Z,1.65
2023-11-21T07:35:05.352Z,0.30
2023-11-21T07:37:35.312Z,0.47
2023-11-21T07:40:04.113Z,0.80
2023-11-21T07:42:32.437Z,0.25
2023-11-21T07:45:00.936Z,0.55
2023-11-21T07:47:33.798Z,0.10
2023-11-21T07:50:05.792Z,0.85
2023-11-21T07:52:34.161Z,1.15
2023-11-21T07:55:02.826Z,0.57
2023-11-21T07:57:30.270Z,0.28
2023-11-21T07:59:58.186Z,0.52
2023-11-21T08:02:27.325Z,1.12
2023-11-21T08:04:55.478Z,1.33
2023-11-21T08:07:23.468Z,1.45
2023-11-21T08:09:51.200Z,0.75
2023-11-21T08:12:19.447Z,0.75
2023-11-21T08:14:47.117Z,0.37
2023-11-21T08:17:18.568Z,0.05
2023-11-21T08:19:50.717Z,0.37
2023-11-21T08:22:19.103Z,1.85
2023-11-21T08:24:47.977Z,0.20
2023-11-21T08:27:17.183Z,0.75
2023-11-21T08:29:45.013Z,0.65
2023-11-21T08:32:12.899Z,0.35
2023-11-21T08:34:41.665Z,1.70
2023-11-21T08:37:09.263Z,1.20
2023-11-21T08:39:38.523Z,1.02
2023-11-21T08:42:06.163Z,1.77
2023-11-21T08:44:33.635Z,0.98
2023-11-21T08:47:01.412Z,0.47
2023-11-21T08:49:30.743Z,0.98
2023-11-21T08:52:00.692Z,1.00
2023-11-21T08:54:28.609Z,1.10
2023-11-21T08:56:56.366Z,0.50
2023-11-21T08:59:23.909Z,0.95
2023-11-21T09:01:52.033Z,1.15
2023-11-21T09:04:19.645Z,1.65
2023-11-21T09:06:47.281Z,0.60
2023-11-21T09:09:15.209Z,1.45
2023-11-21T09:11:42.807Z,0.52
2023-11-21T09:14:11.370Z,0.10
2023-11-21T09:16:40.026Z,0.52
2023-11-21T09:19:07.697Z,0.73
2023-11-21T09:21:35.674Z,1.05
2023-11-21T09:24:04.195Z,0.75
2023-11-21T09:26:31.861Z,2.58
2023-11-21T09:28:59.739Z,0.90
2023-11-21T09:31:28.937Z,2.17
2023-11-21T09:33:56.604Z,0.95
2023-11-21T09:36:28.401Z,0.40
2023-11-21T09:38:56.669Z,0.32
2023-11-21T09:41:36.276Z,0.40
2023-11-21T09:44:08.606Z,0.90
2023-11-21T09:49:13.907Z,0.50
2023-11-21T09:51:44.802Z,1.48
2023-11-21T09:54:12.819Z,1.25
2023-11-21T09:56:40.430Z,1.08
2023-11-21T09:59:11.180Z,0.82
2023-11-21T10:01:40.509Z,1.23
2023-11-21T10:04:13.151Z,0.85
2023-11-21T10:06:42.749Z,0.90
2023-11-21T10:09:12.928Z,1.08
2023-11-21T10:11:44.744Z,2.85
2023-11-21T10:16:43.066Z,1.45
2023-11-21T10:19:12.307Z,1.52
2023-11-21T10:21:40.924Z,0.68
2023-11-21T10:24:08.714Z,1.08
2023-11-21T10:26:47.272Z,1.45
2023-11-21T10:29:19.811Z,0.80
2023-11-21T10:31:50.975Z,1.62
2023-11-21T10:34:23.111Z,1.05
2023-11-21T10:36:51.407Z,1.33
2023-11-21T10:39:24.906Z,0.80
2023-11-21T10:41:52.581Z,1.00
2023-11-21T10:44:25.402Z,0.32
2023-11-21T10:46:57.341Z,2.40
2023-11-21T10:51:57.075Z,0.50
2023-11-21T10:54:26.806Z,0.90
2023-11-21T10:56:58.139Z,0.73
2023-11-21T10:59:29.915Z,0.68
2023-11-21T11:01:59.269Z,0.43
2023-11-21T11:04:28.648Z,0.75
2023-11-21T11:06:59.139Z,0.40
2023-11-21T11:09:27.799Z,0.75
2023-11-21T11:11:55.321Z,1.20
2023-11-21T11:14:26.372Z,0.62
2023-11-21T11:16:57.074Z,1.17
2023-11-21T11:19:24.627Z,1.80
2023-11-21T11:22:20.120Z,1.10
2023-11-21T11:24:56.631Z,1.00
2023-11-21T11:27:36.254Z,0.75
2023-11-21T11:30:47.936Z,1.45
2023-11-21T11:33:27.564Z,1.05
2023-11-21T11:36:05.101Z,0.43
2023-11-21T11:38:34.646Z,0.90
2023-11-21T11:41:05.307Z,1.55
2023-11-21T11:43:45.694Z,1.17
2023-11-21T11:46:14.505Z,0.30
2023-11-21T11:48:42.215Z,1.15
2023-11-21T11:51:19.164Z,0.40
2023-11-21T11:53:48.254Z,0.28
2023-11-21T11:56:29.009Z,0.37
2023-11-21T11:58:58.459Z,1.58
2023-11-21T12:01:28.247Z,0.62
2023-11-21T12:04:35.331Z,1.37
2023-11-21T12:07:04.303Z,0.52
2023-11-21T12:09:32.990Z,0.90
2023-11-21T12:12:01.356Z,0.43
2023-11-21T12:14:30.032Z,0.93
2023-11-21T12:16:57.987Z,0.35
2023-11-21T12:19:26.122Z,0.55
2023-11-21T12:21:54.165Z,0.62
2023-11-21T12:24:22.115Z,0.73
2023-11-21T12:26:49.805Z,1.15
2023-11-21T12:29:18.055Z,0.57
2023-11-21T12:31:47.383Z,0.65
2023-11-21T12:34:15.831Z,0.60
2023-11-21T12:36:43.854Z,0.77
2023-11-21T12:39:12.136Z,1.27
2023-11-21T12:41:40.203Z,0.70
2023-11-21T12:44:16.783Z,0.00
2023-11-21T12:46:46.490Z,1.27
2023-11-21T12:49:18.720Z,0.60
2023-11-21T12:51:47.828Z,1.20
2023-11-21T12:54:17.018Z,0.10
2023-11-21T12:56:48.695Z,0.20
2023-11-21T12:59:19.300Z,0.20
2023-11-21T13:01:48.323Z,0.50
2023-11-21T13:04:16.316Z,0.85
2023-11-21T13:06:43.925Z,0.30
2023-11-21T13:09:19.355Z,0.20
2023-11-21T13:11:48.038Z,1.30
2023-11-21T13:14:16.007Z,1.23
2023-11-21T13:16:47.713Z,1.00
2023-11-21T13:19:15.865Z,0.88
2023-11-21T13:21:45.057Z,2.03
2023-11-21T13:24:12.701Z,0.73
2023-11-21T13:26:40.572Z,1.23
2023-11-21T13:29:10.393Z,1.08
2023-11-21T13:31:39.663Z,1.65
2023-11-21T13:34:09.664Z,0.65
2023-11-21T13:36:37.510Z,0.90
2023-11-21T13:39:16.737Z,3.15
2023-11-21T13:41:44.897Z,0.75
2023-11-21T13:44:28.317Z,1.95
2023-11-21T13:46:59.493Z,0.68
2023-11-21T13:49:30.314Z,1.17
2023-11-21T13:51:59.889Z,1.00
2023-11-21T13:54:28.589Z,1.77
2023-11-21T13:56:56.877Z,1.00
2023-11-21T13:59:29.351Z,2.17
2023-11-21T14:02:01.372Z,1.83
2023-11-21T14:04:49.683Z,1.17
2023-11-21T14:07:28.011Z,1.42
2023-11-21T14:09:57.393Z,1.05
2023-11-21T14:12:25.848Z,1.08
2023-11-21T14:14:53.929Z,1.77
2023-11-21T14:17:23.616Z,1.30
2023-11-21T14:20:04.174Z,0.52
2023-11-21T14:26:31.409Z,0.35
2023-11-21T14:29:23.694Z,1.70
2023-11-21T14:32:02.842Z,0.98
2023-11-21T14:34:30.896Z,0.40
2023-11-21T14:36:59.569Z,1.00
2023-11-21T14:39:39.032Z,0.57
2023-11-21T14:42:09.369Z,0.55
2023-11-21T15:06:30.696Z,1.35
2023-11-21T15:09:08.143Z,1.90
2023-11-21T15:11:36.616Z,2.95
2023-11-21T15:14:10.322Z,1.98
2023-11-21T15:16:44.478Z,2.17
2023-11-21T15:19:19.072Z,2.17
2023-11-21T15:21:47.199Z,1.45
2023-11-21T15:24:14.997Z,1.73
2023-11-21T15:26:42.463Z,2.15
2023-11-21T15:29:10.188Z,2.05
2023-11-21T15:31:39.542Z,1.65
2023-11-21T15:34:07.126Z,4.03
2023-11-21T15:36:34.862Z,3.05
2023-11-21T15:39:02.669Z,1.80
2023-11-21T15:41:30.208Z,1.98
2023-11-21T15:43:58.942Z,1.95
2023-11-21T15:46:27.106Z,2.22
2023-11-21T15:48:58.057Z,2.35
2023-11-21T15:51:25.928Z,2.65
2023-11-21T15:53:53.768Z,1.60
2023-11-21T15:56:21.198Z,3.45
2023-11-21T15:58:51.415Z,2.03
2023-11-21T16:01:23.135Z,2.25
2023-11-21T16:03:52.127Z,3.70
2023-11-21T16:06:19.867Z,0.95
2023-11-21T16:08:47.408Z,3.67
2023-11-21T16:11:15.219Z,3.37
2023-11-21T16:13:43.732Z,2.85
2023-11-21T16:16:11.322Z,1.48
2023-11-21T16:18:39.567Z,3.62
2023-11-21T16:21:09.210Z,2.35
2023-11-21T16:23:38.210Z,4.05
2023-11-21T16:26:07.262Z,6.05
2023-11-21T16:28:34.936Z,8.00
2023-11-21T16:31:02.739Z,5.12
2023-11-21T16:33:30.828Z,7.40
2023-11-21T16:35:58.256Z,7.00
2023-11-21T16:38:25.845Z,7.30
2023-11-21T16:40:53.779Z,4.68
2023-11-21T16:43:22.484Z,4.10
2023-11-21T16:45:53.087Z,5.87
2023-11-21T16:48:21.343Z,5.40
2023-11-21T16:50:50.092Z,6.45
2023-11-21T16:53:18.376Z,3.40
2023-11-21T16:55:50.384Z,2.55
2023-11-21T16:58:18.839Z,3.72
2023-11-21T17:00:48.742Z,3.15
2023-11-21T17:03:16.738Z,4.43
2023-11-21T17:05:44.363Z,4.35
2023-11-21T17:08:13.308Z,3.78
2023-11-21T17:10:40.840Z,2.08
2023-11-21T17:13:08.473Z,1.30
2023-11-21T17:15:36.217Z,2.20
2023-11-21T17:18:04.377Z,1.98
2023-11-21T17:20:31.978Z,1.60
2023-11-21T17:23:00.401Z,2.20
2023-11-21T17:25:27.892Z,2.80
2023-11-21T17:27:57.288Z,1.98
2023-11-21T17:30:25.087Z,1.08
2023-11-21T17:32:52.717Z,1.42
2023-11-21T17:35:20.459Z,1.10
2023-11-21T17:37:48.428Z,1.00
2023-11-21T17:40:16.442Z,1.12
2023-11-21T17:42:43.935Z,2.45
2023-11-21T17:45:11.835Z,1.30
2023-11-21T17:47:39.521Z,0.22
2023-11-21T17:50:07.120Z,1.67
2023-11-21T17:52:35.480Z,1.10
2023-11-21T17:55:02.937Z,1.80
2023-11-21T17:57:30.484Z,0.37
2023-11-21T17:59:58.175Z,1.02
2023-11-21T18:02:25.799Z,0.10
2023-11-21T18:04:53.610Z,1.15
2023-11-21T18:07:21.054Z,0.75
2023-11-21T18:09:48.880Z,0.47
2023-11-21T18:12:17.663Z,1.40
2023-11-21T18:14:49.467Z,1.45
2023-11-21T18:17:18.716Z,0.73
2023-11-21T18:19:48.231Z,1.30
2023-11-21T18:22:16.679Z,2.60
2023-11-21T18:24:44.366Z,0.93
2023-11-21T18:27:12.059Z,1.12
2023-11-21T18:29:39.681Z,1.35
2023-11-21T18:32:11.504Z,2.12
2023-11-21T18:34:44.635Z,1.60
2023-11-21T18:37:13.211Z,1.75
2023-11-21T18:39:43.705Z,1.33
2023-11-21T18:42:11.090Z,1.30
2023-11-21T18:44:55.087Z,1.25
2023-11-21T18:47:26.530Z,2.33
2023-11-21T18:49:54.545Z,2.17
2023-11-21T18:52:22.020Z,1.70
2023-11-21T18:54:49.774Z,2.15
2023-11-21T18:57:17.928Z,0.65
2023-11-21T18:59:46.076Z,0.88
2023-11-21T19:02:17.066Z,2.83
2023-11-21T19:04:45.810Z,2.53
2023-11-21T19:07:13.626Z,2.87
2023-11-21T19:09:41.313Z,1.87
2023-11-21T19:12:09.670Z,1.40
2023-11-21T19:14:37.168Z,1.62
2023-11-21T19:17:04.766Z,2.03
2023-11-21T19:19:32.837Z,3.05
2023-11-21T19:22:00.809Z,2.47
2023-11-21T19:24:30.081Z,1.17
2023-11-21T19:26:57.965Z,0.93
2023-11-21T19:29:26.741Z,2.55
2023-11-21T19:31:55.969Z,3.75
2023-11-21T19:34:24.359Z,0.95
2023-11-21T19:36:53.768Z,1.42
2023-11-21T19:39:21.347Z,0.88
2023-11-21T19:41:49.899Z,0.90
2023-11-21T19:44:17.488Z,2.25
2023-11-21T19:46:45.158Z,1.60
2023-11-21T19:49:13.669Z,1.87
2023-11-21T19:51:41.213Z,2.22
2023-11-21T19:54:09.988Z,1.05
2023-11-21T19:56:39.568Z,1.65
2023-11-21T19:59:07.149Z,0.47
2023-11-21T20:01:35.128Z,0.73
2023-11-21T20:04:03.048Z,2.30
2023-11-21T20:09:00.870Z,1.33
2023-11-21T20:11:28.715Z,1.40
2023-11-21T20:13:57.273Z,1.20
2023-11-21T20:16:26.779Z,0.65
2023-11-21T20:18:54.869Z,3.72
2023-11-21T20:21:23.551Z,0.82
2023-11-21T20:23:51.273Z,2.55
2023-11-21T20:26:26.039Z,1.65
2023-11-21T20:28:54.732Z,2.75
2023-11-21T20:31:22.666Z,2.85
2023-11-21T20:33:50.243Z,7.28
2023-11-21T20:36:17.908Z,7.03
2023-11-21T20:38:45.722Z,4.78
2023-11-21T20:41:15.452Z,6.47
2023-11-21T20:43:43.050Z,3.00
2023-11-21T20:46:11.853Z,2.03
2023-11-21T20:48:39.940Z,1.48
2023-11-21T20:51:08.093Z,0.40
2023-11-21T20:53:36.101Z,1.12
2023-11-21T20:56:04.022Z,1.92
2023-11-21T20:58:31.571Z,6.22
2023-11-21T21:00:59.465Z,3.55
2023-11-21T21:03:27.098Z,5.72
2023-11-21T21:05:54.640Z,5.25
2023-11-21T21:08:22.386Z,3.10
2023-11-21T21:10:49.930Z,2.90
2023-11-21T21:13:18.862Z,2.97
2023-11-21T21:15:49.745Z,2.42
2023-11-21T21:18:17.723Z,2.67
2023-11-21T21:20:45.896Z,2.22
2023-11-21T21:23:15.176Z,4.00
2023-11-21T21:25:42.708Z,2.20
2023-11-21T21:28:10.151Z,3.50
2023-11-21T21:30:38.220Z,2.55
2023-11-21T21:33:07.138Z,1.23
2023-11-21T21:35:34.896Z,6.18
2023-11-21T21:38:03.363Z,1.73
2023-11-21T21:40:33.208Z,2.70
2023-11-21T21:43:02.119Z,3.62
2023-11-21T21:45:30.132Z,2.22
2023-11-21T21:47:57.776Z,2.42
2023-11-21T21:50:26.775Z,3.33
2023-11-21T21:52:58.514Z,3.03
2023-11-21T21:55:30.235Z,1.12
2023-11-21T21:57:58.109Z,1.00
2023-11-21T22:00:25.667Z,2.30
2023-11-21T22:02:53.448Z,2.37
2023-11-21T22:05:20.951Z,1.00
2023-11-21T22:07:48.406Z,1.65
2023-11-21T22:10:16.303Z,0.40
2023-11-21T22:12:44.083Z,0.28
2023-11-21T22:15:11.620Z,1.12
2023-11-21T22:17:39.540Z,1.10
2023-11-21T22:20:07.608Z,0.85
2023-11-21T22:22:35.073Z,1.20
2023-11-21T22:25:04.666Z,0.50
2023-11-21T22:27:32.259Z,0.40
2023-11-21T22:30:00.133Z,1.02
2023-11-21T22:32:28.701Z,1.37
2023-11-21T22:34:56.148Z,1.15
2023-11-21T22:37:23.671Z,1.62
2023-11-21T22:39:52.635Z,2.33
2023-11-21T22:42:21.768Z,1.58
2023-11-21T22:44:49.374Z,2.15
2023-11-21T22:47:17.365Z,3.08
2023-11-21T22:49:45.038Z,1.73
2023-11-21T22:52:12.509Z,1.98
2023-11-21T22:54:40.382Z,3.12
2023-11-21T22:57:07.968Z,2.37
2023-11-21T22:59:36.833Z,1.48
2023-11-21T23:02:05.075Z,3.12
2023-11-21T23:04:32.652Z,1.37
2023-11-21T23:07:00.177Z,1.17
2023-11-21T23:09:28.018Z,1.55
2023-11-21T23:11:55.578Z,4.25
2023-11-21T23:14:23.127Z,1.92
2023-11-21T23:16:52.723Z,4.22
2023-11-21T23:19:21.628Z,1.87
2023-11-21T23:21:49.186Z,1.25
2023-11-21T23:24:21.324Z,3.95
2023-11-21T23:26:49.230Z,2.58
2023-11-21T23:29:17.799Z,3.05
2023-11-21T23:31:45.313Z,1.62
2023-11-21T23:34:13.139Z,2.62
2023-11-21T23:36:41.378Z,2.83
2023-11-21T23:39:09.167Z,2.28
2023-11-21T23:41:36.667Z,1.02
2023-11-21T23:44:05.797Z,3.05
2023-11-21T23:46:36.892Z,1.95
2023-11-21T23:49:04.728Z,2.80
2023-11-21T23:51:32.330Z,1.75
2023-11-21T23:53:59.789Z,2.10
2023-11-21T23:56:27.763Z,0.70
2023-11-21T23:58:55.897Z,2.35
